Time;durP1;ratioP1;P1;durP2;ratioP2;P2;SDS_P1;SDS_P2;PMS_P1;PMS_P2;Temp;Humidity;BMP_temperature;BMP_pressure;BME280_temperature;BME280_humidity;BME280_pressure;Samples;Min_cycle;Max_cycle;Signal;HPM_P1;HPM_P2
2022/04/11 00:01:30;;;;;;;20.60;11.10;;;;;;;-145.45;100.00;62759.84;5322040;28;20111;-76
2022/04/11 00:04:01;;;;;;;25.17;12.20;;;;;;;-145.45;100.00;62759.84;5305001;28;20020;-76
2022/04/11 00:06:33;;;;;;;26.35;11.93;;;;;;;-145.45;100.00;62759.84;5304668;28;20031;-76
2022/04/11 00:09:04;;;;;;;34.88;14.07;;;;;;;-145.45;100.00;62759.84;5305098;28;20303;-76
2022/04/11 00:11:35;;;;;;;35.15;13.63;;;;;;;-145.45;100.00;62759.84;5300616;28;20485;-76
2022/04/11 00:14:07;;;;;;;34.63;13.75;;;;;;;-145.45;100.00;62759.84;5304389;28;20064;-76
2022/04/11 00:16:38;;;;;;;28.83;11.75;;;;;;;-145.45;100.00;62759.84;5306354;28;20041;-76
2022/04/11 00:19:10;;;;;;;39.30;13.23;;;;;;;-145.45;100.00;62759.84;5285092;28;20028;-76
2022/04/11 00:21:41;;;;;;;37.45;13.60;;;;;;;-145.45;100.00;62759.84;5301299;28;20037;-76
2022/04/11 00:24:12;;;;;;;32.20;12.93;;;;;;;-145.45;100.00;62759.84;5268523;28;20629;-76
2022/04/11 00:26:44;;;;;;;39.72;12.95;;;;;;;-145.45;100.00;62759.84;5284767;28;20037;-76
2022/04/11 00:29:15;;;;;;;43.13;13.73;;;;;;;-145.45;100.00;62759.84;5301262;28;40682;-76
2022/04/11 00:31:46;;;;;;;38.50;13.43;;;;;;;-145.45;100.00;62759.84;5303530;28;20040;-76
2022/04/11 00:34:17;;;;;;;37.47;13.45;;;;;;;-145.45;100.00;62759.84;5303330;28;20025;-76
2022/04/11 00:36:49;;;;;;;42.67;15.52;;;;;;;-145.45;100.00;62759.84;5312802;28;20020;-76
2022/04/11 00:39:20;;;;;;;36.35;13.68;;;;;;;-145.45;100.00;62759.84;5309201;28;20051;-76
2022/04/11 00:41:51;;;;;;;31.15;12.90;;;;;;;-145.45;100.00;62759.84;5315707;28;20031;-76
2022/04/11 00:44:22;;;;;;;40.00;12.85;;;;;;;-145.45;100.00;62759.84;5283734;28;20082;-76
2022/04/11 00:46:54;;;;;;;27.67;12.23;;;;;;;-145.45;100.00;62759.84;5302774;28;20032;-76
2022/04/11 00:49:25;;;;;;;26.65;11.93;;;;;;;-145.45;100.00;62759.84;5302892;28;20036;-76
2022/04/11 00:51:57;;;;;;;21.20;10.95;;;;;;;-145.45;100.00;62759.84;5303150;28;20032;-76
2022/04/11 00:54:31;;;;;;;25.70;11.65;;;;;;;-145.45;100.00;62759.84;5302956;28;20025;-74
2022/04/11 00:57:03;;;;;;;24.85;11.30;;;;;;;-145.45;100.00;62759.84;5284355;28;20094;-76
2022/04/11 00:59:35;;;;;;;28.83;11.48;;;;;;;-145.45;100.00;62759.84;5304349;28;20036;-76
2022/04/11 01:02:07;;;;;;;23.73;11.57;;;;;;;-145.45;100.00;62759.84;5302661;28;20072;-76
2022/04/11 01:04:41;;;;;;;21.33;11.40;;;;;;;-145.45;100.00;62759.84;5307134;28;20025;-76
2022/04/11 01:07:12;;;;;;;23.20;11.35;;;;;;;-145.45;100.00;62759.84;5301965;28;20102;-76
2022/04/11 01:09:43;;;;;;;24.38;11.75;;;;;;;-145.45;100.00;62759.84;5308951;28;20025;-74
2022/04/11 01:12:15;;;;;;;22.67;11.45;;;;;;;-145.45;100.00;62759.84;5302295;28;20028;-76
2022/04/11 01:14:47;;;;;;;25.20;12.25;;;;;;;-145.45;100.00;62759.84;5285803;28;20410;-76
2022/04/11 01:17:18;;;;;;;21.70;11.48;;;;;;;-145.45;100.00;62759.84;5284637;28;20036;-74
2022/04/11 01:19:49;;;;;;;22.33;11.77;;;;;;;-145.45;100.00;62759.84;5285262;28;20443;-76
2022/04/11 01:22:20;;;;;;;20.33;10.98;;;;;;;-145.45;100.00;62759.84;5284262;28;20478;-74
2022/04/11 01:24:52;;;;;;;21.08;11.40;;;;;;;-145.45;100.00;62759.84;5285528;28;20029;-76
2022/04/11 01:27:24;;;;;;;24.45;12.75;;;;;;;-145.45;100.00;62759.84;5284473;28;20012;-76
2022/04/11 01:29:56;;;;;;;18.63;11.43;;;;;;;-145.45;100.00;62759.84;5290428;28;20442;-76
2022/04/11 01:32:28;;;;;;;17.88;11.52;;;;;;;-145.45;100.00;62759.84;5291945;28;20118;-76
2022/04/11 01:35:00;;;;;;;21.15;11.80;;;;;;;-145.45;100.00;62759.84;5284025;28;20060;-76
2022/04/11 01:37:34;;;;;;;23.35;12.25;;;;;;;-145.45;100.00;62759.84;5283895;28;20072;-74
2022/04/11 01:40:05;;;;;;;15.45;10.82;;;;;;;-145.45;100.00;62759.84;5283057;28;20029;-74
2022/04/11 01:42:37;;;;;;;15.73;11.55;;;;;;;-145.45;100.00;62759.84;5280345;28;20111;-74
2022/04/11 01:45:10;;;;;;;17.45;10.80;;;;;;;-145.45;100.00;62759.84;5289911;28;20013;-76
2022/04/11 01:47:42;;;;;;;16.38;10.82;;;;;;;-145.45;100.00;62759.84;5284159;28;20021;-74
2022/04/11 01:50:13;;;;;;;17.83;12.00;;;;;;;-145.45;100.00;62759.84;5284241;28;20090;-74
2022/04/11 01:52:44;;;;;;;14.75;10.93;;;;;;;-145.45;100.00;62759.84;5282722;28;20117;-75
2022/04/11 01:55:15;;;;;;;13.45;10.82;;;;;;;-145.45;100.00;62759.84;5291221;28;20036;-76
2022/04/11 01:57:47;;;;;;;15.88;11.70;;;;;;;-145.45;100.00;62759.84;5292298;28;20051;-75
2022/04/11 02:00:18;;;;;;;12.52;10.52;;;;;;;-145.45;100.00;62759.84;5291588;28;20029;-75
2022/04/11 02:02:49;;;;;;;13.13;11.40;;;;;;;-145.45;100.00;62759.84;5291643;28;20390;-73
2022/04/11 02:05:21;;;;;;;16.95;10.77;;;;;;;-145.45;100.00;62759.84;5291757;28;20521;-74
2022/04/11 02:07:53;;;;;;;17.70;11.48;;;;;;;-145.45;100.00;62759.84;5291884;28;20478;-74
2022/04/11 02:10:25;;;;;;;13.60;10.55;;;;;;;-145.45;100.00;62759.84;5285000;28;20029;-76
2022/04/11 02:12:56;;;;;;;15.10;11.27;;;;;;;-145.45;100.00;62759.84;5289543;28;20055;-76
2022/04/11 02:15:27;;;;;;;14.25;10.93;;;;;;;-145.45;100.00;62759.84;5304131;28;38408;-75
2022/04/11 02:17:59;;;;;;;14.65;11.07;;;;;;;-145.45;100.00;62759.84;5298223;28;20032;-76
2022/04/11 02:20:30;;;;;;;13.90;11.07;;;;;;;-145.45;100.00;62759.84;5305484;28;20059;-76
2022/04/11 02:23:02;;;;;;;13.05;11.13;;;;;;;-145.45;100.00;62759.84;5306359;28;20039;-75
2022/04/11 02:25:34;;;;;;;13.48;10.40;;;;;;;-145.45;100.00;62759.84;5304487;28;20028;-76
2022/04/11 02:28:06;;;;;;;14.75;11.05;;;;;;;-145.45;100.00;62759.84;5304954;28;20474;-75
2022/04/11 02:30:37;;;;;;;12.82;10.15;;;;;;;-145.45;100.00;62759.84;5291580;28;20035;-75
2022/04/11 02:33:09;;;;;;;16.15;10.80;;;;;;;-145.45;100.00;62759.84;5305313;28;20028;-75
2022/04/11 02:35:41;;;;;;;14.35;10.57;;;;;;;-145.45;100.00;62759.84;5305159;28;20365;-76
2022/04/11 02:38:13;;;;;;;14.55;11.07;;;;;;;-145.45;100.00;62759.84;5305806;28;20021;-76
2022/04/11 02:40:46;;;;;;;13.57;10.98;;;;;;;-145.45;100.00;62759.84;5297095;28;20385;-76
2022/04/11 02:43:17;;;;;;;14.45;11.05;;;;;;;-145.45;100.00;62759.84;5308543;28;20455;-75
2022/04/11 02:45:48;;;;;;;14.00;11.40;;;;;;;-145.45;100.00;62759.84;5304893;28;20111;-75
2022/04/11 02:48:20;;;;;;;12.18;10.82;;;;;;;-145.45;100.00;62759.84;5305308;28;20040;-76
2022/04/11 02:50:52;;;;;;;14.00;11.10;;;;;;;-145.45;100.00;62759.84;5304278;28;20024;-75
2022/04/11 02:53:23;;;;;;;14.25;10.63;;;;;;;-145.45;100.00;62759.84;5301287;28;20025;-75
2022/04/11 02:55:54;;;;;;;13.85;12.13;;;;;;;-145.45;100.00;62759.84;5307321;28;20031;-75
2022/04/11 02:58:26;;;;;;;14.52;11.98;;;;;;;-145.45;100.00;62759.84;5311068;28;20052;-74
2022/04/11 03:00:57;;;;;;;13.82;12.02;;;;;;;-145.45;100.00;62759.84;5303447;28;20028;-76
2022/04/11 03:03:28;;;;;;;17.10;12.90;;;;;;;-145.45;100.00;62759.84;5309342;28;20024;-75
2022/04/11 03:06:00;;;;;;;13.43;12.02;;;;;;;-145.45;100.00;62759.84;5287173;28;20028;-75
2022/04/11 03:08:32;;;;;;;13.70;11.75;;;;;;;-145.45;100.00;62759.84;5306850;28;20051;-75
2022/04/11 03:11:04;;;;;;;19.63;12.43;;;;;;;-145.45;100.00;62759.84;5305017;28;20044;-75
2022/04/11 03:13:35;;;;;;;13.55;12.00;;;;;;;-145.45;100.00;62759.84;5318303;28;20078;-75
2022/04/11 03:16:07;;;;;;;14.88;12.32;;;;;;;-145.45;100.00;62759.84;5287500;28;20119;-74
2022/04/11 03:18:39;;;;;;;16.65;12.93;;;;;;;-145.45;100.00;62759.84;5304390;28;20382;-74
2022/04/11 03:21:11;;;;;;;19.67;13.02;;;;;;;-145.45;100.00;62759.84;5299534;28;20036;-74
2022/04/11 03:23:42;;;;;;;15.43;13.60;;;;;;;-145.45;100.00;62759.84;5310300;28;20038;-75
2022/04/11 03:26:13;;;;;;;15.77;13.02;;;;;;;-145.45;100.00;62759.84;5289821;28;20476;-74
2022/04/11 03:28:44;;;;;;;20.38;13.07;;;;;;;-145.45;100.00;62759.84;5304137;28;20113;-75
2022/04/11 03:31:16;;;;;;;18.05;12.93;;;;;;;-145.45;100.00;62759.84;5300014;28;20025;-74
2022/04/11 03:33:47;;;;;;;15.20;12.52;;;;;;;-145.45;100.00;62759.84;5315736;28;20081;-74
2022/04/11 03:36:18;;;;;;;13.98;12.52;;;;;;;-145.45;100.00;62759.84;5305026;28;20745;-74
2022/04/11 03:38:50;;;;;;;15.13;12.85;;;;;;;-145.45;100.00;62759.84;5305606;28;20024;-75
2022/04/11 03:41:21;;;;;;;16.50;13.30;;;;;;;-145.45;100.00;62759.84;5303810;28;20385;-74
2022/04/11 03:43:53;;;;;;;19.05;13.95;;;;;;;-145.45;100.00;62759.84;5303985;28;20117;-74
2022/04/11 03:46:24;;;;;;;16.17;13.38;;;;;;;-145.45;100.00;62759.84;5302155;28;41566;-74
2022/04/11 03:48:55;;;;;;;17.17;13.18;;;;;;;-145.45;100.00;62759.84;5304877;28;20037;-74
2022/04/11 03:51:26;;;;;;;17.08;13.07;;;;;;;-145.45;100.00;62759.84;5303143;28;20028;-75
2022/04/11 03:53:58;;;;;;;18.33;13.25;;;;;;;-145.45;100.00;62759.84;5310251;28;20039;-75
2022/04/11 03:56:29;;;;;;;15.68;13.35;;;;;;;-145.45;100.00;62759.84;5309991;28;20095;-74
2022/04/11 03:59:01;;;;;;;15.95;13.68;;;;;;;-145.45;100.00;62759.84;5306042;28;20098;-74
2022/04/11 04:01:32;;;;;;;16.15;13.80;;;;;;;-145.45;100.00;62759.84;5299216;28;20052;-74
2022/04/11 04:04:03;;;;;;;14.88;13.38;;;;;;;-145.45;100.00;62759.84;5308284;28;20090;-74
2022/04/11 04:06:35;;;;;;;17.63;13.70;;;;;;;-145.45;100.00;62759.84;5303068;28;20025;-75
2022/04/11 04:09:06;;;;;;;16.35;13.60;;;;;;;-145.45;100.00;62759.84;5307364;28;20039;-74
2022/04/11 04:11:38;;;;;;;16.70;13.38;;;;;;;-145.45;100.00;62759.84;5303182;28;20109;-74
2022/04/11 04:14:09;;;;;;;18.70;14.35;;;;;;;-145.45;100.00;62759.84;5301695;28;20049;-74
2022/04/11 04:16:40;;;;;;;17.55;14.48;;;;;;;-145.45;100.00;62759.84;5300723;28;20103;-74
2022/04/11 04:19:13;;;;;;;16.40;13.82;;;;;;;-145.45;100.00;62759.84;5302593;28;20050;-74
2022/04/11 04:21:44;;;;;;;16.88;14.68;;;;;;;-145.45;100.00;62759.84;5302219;28;20500;-74
2022/04/11 04:24:15;;;;;;;17.05;14.77;;;;;;;-145.45;100.00;62759.84;5311204;28;20036;-75
2022/04/11 04:26:46;;;;;;;16.30;14.23;;;;;;;-145.45;100.00;62759.84;5304466;28;20025;-74
2022/04/11 04:29:18;;;;;;;15.80;14.25;;;;;;;-145.45;100.00;62759.84;5302677;28;20054;-74
2022/04/11 04:31:49;;;;;;;17.00;14.98;;;;;;;-145.45;100.00;62759.84;5285651;28;20040;-74
2022/04/11 04:34:21;;;;;;;17.67;15.05;;;;;;;-145.45;100.00;62759.84;5312959;28;20565;-74
2022/04/11 04:36:53;;;;;;;17.92;14.00;;;;;;;-145.45;100.00;62759.84;5306129;28;20179;-75
2022/04/11 04:39:25;;;;;;;17.30;13.68;;;;;;;-145.45;100.00;62759.84;5310941;28;20048;-75
2022/04/11 04:41:56;;;;;;;17.83;14.80;;;;;;;-145.45;100.00;62759.84;5304514;28;20078;-75
2022/04/11 04:44:27;;;;;;;18.05;14.43;;;;;;;-145.45;100.00;62759.84;5282462;28;20159;-75
2022/04/11 04:46:59;;;;;;;16.95;14.32;;;;;;;-145.45;100.00;62759.84;5282966;28;20532;-75
2022/04/11 04:49:30;;;;;;;16.33;13.80;;;;;;;-145.45;100.00;62759.84;5305983;28;27237;-75
2022/04/11 04:52:02;;;;;;;17.40;13.70;;;;;;;-145.45;100.00;62759.84;5304865;28;20495;-75
2022/04/11 04:54:33;;;;;;;18.38;14.57;;;;;;;-145.45;100.00;62759.84;5310834;28;20036;-75
2022/04/11 04:57:05;;;;;;;16.63;13.85;;;;;;;-145.45;100.00;62759.84;5307469;28;20020;-74
2022/04/11 04:59:37;;;;;;;19.27;14.18;;;;;;;-145.45;100.00;62759.84;5304518;28;20036;-75
2022/04/11 05:02:08;;;;;;;15.60;13.90;;;;;;;-145.45;100.00;62759.84;5311842;28;20025;-75
2022/04/11 05:04:39;;;;;;;18.88;14.60;;;;;;;-145.45;100.00;62759.84;5306791;28;20020;-75
2022/04/11 05:07:11;;;;;;;16.20;13.20;;;;;;;-145.45;100.00;62759.84;5303284;28;20024;-75
2022/04/11 05:09:42;;;;;;;15.23;13.73;;;;;;;-145.45;100.00;62759.84;5289089;28;20024;-76
2022/04/11 05:12:13;;;;;;;17.83;13.75;;;;;;;-145.45;100.00;62759.84;5287815;28;20420;-76
2022/04/11 05:14:45;;;;;;;14.73;13.35;;;;;;;-145.45;100.00;62759.84;5306541;28;20045;-75
2022/04/11 05:17:16;;;;;;;15.90;13.23;;;;;;;-145.45;100.00;62759.84;5285685;28;20035;-74
2022/04/11 05:19:47;;;;;;;16.75;13.07;;;;;;;-145.45;100.00;62759.84;5286711;28;20025;-75
2022/04/11 05:22:18;;;;;;;14.90;12.48;;;;;;;-145.45;100.00;62759.84;5306857;28;20125;-76
2022/04/11 05:24:50;;;;;;;21.48;12.93;;;;;;;-145.45;100.00;62759.84;5305826;28;20086;-76
2022/04/11 05:27:21;;;;;;;15.25;12.85;;;;;;;-145.45;100.00;62759.84;5302792;28;20108;-76
2022/04/11 05:29:52;;;;;;;18.70;13.65;;;;;;;-145.45;100.00;62759.84;5304838;28;20056;-74
2022/04/11 05:32:24;;;;;;;17.65;12.20;;;;;;;-145.45;100.00;62759.84;5307067;28;20028;-75
2022/04/11 05:34:55;;;;;;;19.27;12.77;;;;;;;-145.45;100.00;62759.84;5303008;28;20025;-74
2022/04/11 05:37:26;;;;;;;15.80;11.85;;;;;;;-145.45;100.00;62759.84;5307973;28;20036;-74
2022/04/11 05:39:58;;;;;;;14.85;11.88;;;;;;;-145.45;100.00;62759.84;5317833;28;20099;-75
2022/04/11 05:42:29;;;;;;;17.40;11.43;;;;;;;-145.45;100.00;62759.84;5301121;28;20020;-76
2022/04/11 05:45:00;;;;;;;16.17;11.32;;;;;;;-145.45;100.00;62759.84;5305405;28;20104;-76
2022/04/11 05:47:32;;;;;;;15.98;11.27;;;;;;;-145.45;100.00;62759.84;5302255;28;20101;-75
2022/04/11 05:50:04;;;;;;;12.75;11.18;;;;;;;-145.45;100.00;62759.84;5296775;28;20032;-75
2022/04/11 05:52:35;;;;;;;15.23;10.68;;;;;;;-145.45;100.00;62759.84;5301569;28;20040;-76
2022/04/11 05:55:07;;;;;;;16.33;10.23;;;;;;;-145.45;100.00;62759.84;5286293;28;20032;-76
2022/04/11 05:57:38;;;;;;;15.77;10.27;;;;;;;-145.45;100.00;62759.84;5289328;28;20044;-75
2022/04/11 06:00:11;;;;;;;18.13;10.57;;;;;;;-145.45;100.00;62759.84;5304132;28;20542;-75
2022/04/11 06:02:43;;;;;;;15.35;10.15;;;;;;;-145.45;100.00;62759.84;5294543;28;20025;-76
2022/04/11 06:05:14;;;;;;;12.90;10.65;;;;;;;-145.45;100.00;62759.84;5305765;28;20021;-75
2022/04/11 06:07:46;;;;;;;11.98;9.85;;;;;;;-145.45;100.00;62759.84;5306304;28;20021;-75
2022/04/11 06:10:17;;;;;;;13.82;10.25;;;;;;;-145.45;100.00;62759.84;5304162;28;20020;-74
2022/04/11 06:12:50;;;;;;;13.52;9.95;;;;;;;-145.45;100.00;62759.84;5304850;28;20055;-76
2022/04/11 06:15:21;;;;;;;13.02;10.30;;;;;;;-145.45;100.00;62759.84;5310058;28;20149;-76
2022/04/11 06:17:52;;;;;;;13.18;9.20;;;;;;;-145.45;100.00;62759.84;5307902;28;20020;-75
2022/04/11 06:20:23;;;;;;;11.48;9.13;;;;;;;-145.45;100.00;62759.84;5323401;28;20047;-75
2022/04/11 06:22:55;;;;;;;13.07;9.18;;;;;;;-145.45;100.00;62759.84;5305796;28;20024;-74
2022/04/11 06:25:26;;;;;;;11.38;8.85;;;;;;;-145.45;100.00;62759.84;5303894;28;20131;-76
2022/04/11 06:27:57;;;;;;;13.43;9.10;;;;;;;-145.45;100.00;62759.84;5303598;28;20023;-76
2022/04/11 06:30:29;;;;;;;13.77;8.30;;;;;;;-145.45;100.00;62759.84;5305147;28;20462;-76
2022/04/11 06:33:00;;;;;;;9.93;8.07;;;;;;;-145.45;100.00;62759.84;5304977;28;20075;-76
2022/04/11 06:35:31;;;;;;;8.68;7.18;;;;;;;-145.45;100.00;62759.84;5305576;28;20476;-76
2022/04/11 06:38:03;;;;;;;10.13;7.20;;;;;;;-145.45;100.00;62759.84;5305145;28;20023;-76
2022/04/11 06:40:34;;;;;;;9.05;7.03;;;;;;;-145.45;100.00;62759.84;5321138;28;20031;-76
2022/04/11 06:43:05;;;;;;;10.52;6.80;;;;;;;-145.45;100.00;62759.84;5326525;28;20030;-76
2022/04/11 06:45:36;;;;;;;12.25;7.05;;;;;;;-145.45;100.00;62759.84;5326394;28;20031;-74
2022/04/11 06:48:09;;;;;;;13.85;6.63;;;;;;;-145.45;100.00;62759.84;5307368;28;20073;-74
2022/04/11 06:50:40;;;;;;;8.32;6.68;;;;;;;-145.45;100.00;62759.84;5326458;28;20388;-74
2022/04/11 06:53:13;;;;;;;10.30;6.60;;;;;;;-145.45;100.00;62759.84;5326122;28;20035;-76
2022/04/11 06:55:47;;;;;;;8.25;5.97;;;;;;;-145.45;100.00;62759.84;5287460;28;20028;-76
2022/04/11 06:58:18;;;;;;;10.45;6.00;;;;;;;-145.45;100.00;62759.84;5304969;28;20033;-76
2022/04/11 07:00:49;;;;;;;9.57;6.18;;;;;;;-145.45;100.00;62759.84;5303582;28;20017;-75
2022/04/11 07:03:20;;;;;;;10.57;5.97;;;;;;;-145.45;100.00;62759.84;5286277;28;20035;-75
2022/04/11 07:05:52;;;;;;;7.32;5.22;;;;;;;-145.45;100.00;62759.84;5286173;28;20017;-76
2022/04/11 07:08:23;;;;;;;6.60;5.20;;;;;;;-145.45;100.00;62759.84;5305058;28;20035;-75
2022/04/11 07:10:57;;;;;;;8.32;5.50;;;;;;;-145.45;100.00;62759.84;5303900;28;20481;-75
2022/04/11 07:13:28;;;;;;;10.02;5.13;;;;;;;-145.45;100.00;62759.84;5297405;28;20056;-76
2022/04/11 07:16:01;;;;;;;8.70;4.57;;;;;;;-145.45;100.00;62759.84;5278675;28;20045;-75
2022/04/11 07:18:33;;;;;;;7.55;4.75;;;;;;;-145.45;100.00;62759.84;5287959;28;20482;-76
2022/04/11 07:21:05;;;;;;;8.50;4.60;;;;;;;-145.45;100.00;62759.84;5324499;28;20024;-76
2022/04/11 07:23:36;;;;;;;8.45;4.65;;;;;;;-145.45;100.00;62759.84;5325712;28;20016;-76
2022/04/11 07:26:07;;;;;;;8.63;4.68;;;;;;;-145.45;100.00;62759.84;5313166;28;20031;-76
2022/04/11 07:28:39;;;;;;;7.72;4.40;;;;;;;-145.45;100.00;62759.84;5325726;28;20089;-76
2022/04/11 07:31:11;;;;;;;11.02;4.97;;;;;;;-145.45;100.00;62759.84;5324078;28;20111;-76
2022/04/11 07:33:42;;;;;;;6.93;4.47;;;;;;;-145.45;100.00;62759.84;5325354;28;20150;-76
2022/04/11 07:36:13;;;;;;;8.02;4.50;;;;;;;-145.45;100.00;62759.84;5314040;28;20025;-76
2022/04/11 07:38:44;;;;;;;5.60;4.13;;;;;;;-145.45;100.00;62759.84;5304014;28;20342;-76
2022/04/11 07:41:16;;;;;;;7.95;4.07;;;;;;;-145.45;100.00;62759.84;5282608;28;20453;-76
2022/04/11 07:43:47;;;;;;;9.90;4.68;;;;;;;-145.45;100.00;62759.84;5303693;28;20020;-76
2022/04/11 07:46:18;;;;;;;6.38;4.43;;;;;;;-145.45;100.00;62759.84;5304840;28;20024;-76
2022/04/11 07:48:50;;;;;;;9.93;4.13;;;;;;;-145.45;100.00;62759.84;5305985;28;20124;-76
2022/04/11 07:51:21;;;;;;;7.70;3.95;;;;;;;-145.45;100.00;62759.84;5285087;28;20025;-76
2022/04/11 07:53:52;;;;;;;6.72;3.70;;;;;;;-145.45;100.00;62759.84;5304404;28;20021;-75
2022/04/11 07:56:23;;;;;;;4.95;3.15;;;;;;;-145.45;100.00;62759.84;5304529;28;20047;-76
2022/04/11 07:58:55;;;;;;;6.35;3.58;;;;;;;-145.45;100.00;62759.84;5285378;28;20031;-75
2022/04/11 08:01:28;;;;;;;7.22;3.33;;;;;;;-145.45;100.00;62759.84;5314520;28;20039;-74
2022/04/11 08:03:59;;;;;;;7.75;3.60;;;;;;;-145.45;100.00;62759.84;5293121;28;20083;-75
2022/04/11 08:06:31;;;;;;;5.45;3.13;;;;;;;-145.45;100.00;62759.84;5292456;28;20029;-74
2022/04/11 08:09:02;;;;;;;8.05;3.28;;;;;;;-145.45;100.00;62759.84;5302765;28;20031;-75
2022/04/11 08:11:33;;;;;;;4.80;3.33;;;;;;;-145.45;100.00;62759.84;5303330;28;20059;-75
2022/04/11 08:14:05;;;;;;;5.63;3.47;;;;;;;-145.45;100.00;62759.84;5302711;28;20409;-74
2022/04/11 08:16:36;;;;;;;6.43;3.05;;;;;;;-145.45;100.00;62759.84;5299341;28;20020;-75
2022/04/11 08:19:07;;;;;;;10.38;3.40;;;;;;;-145.45;100.00;62759.84;5322851;28;24952;-75
2022/04/11 08:21:39;;;;;;;7.25;2.83;;;;;;;-145.45;100.00;62759.84;5306595;28;20044;-75
2022/04/11 08:24:10;;;;;;;6.72;3.05;;;;;;;-145.45;100.00;62759.84;5312549;28;20389;-75
2022/04/11 08:26:41;;;;;;;7.53;3.45;;;;;;;-145.45;100.00;62759.84;5321922;28;20028;-75
2022/04/11 08:29:12;;;;;;;11.93;3.60;;;;;;;-145.45;100.00;62759.84;5308391;28;22837;-75
2022/04/11 08:31:44;;;;;;;11.02;3.50;;;;;;;-145.45;100.00;62759.84;5310160;28;20044;-75
2022/04/11 08:34:16;;;;;;;6.70;3.25;;;;;;;-145.45;100.00;62759.84;5326080;28;20201;-76
2022/04/11 08:36:48;;;;;;;5.45;3.00;;;;;;;-145.45;100.00;62759.84;5307284;28;20028;-75
2022/04/11 08:39:19;;;;;;;6.03;3.00;;;;;;;-145.45;100.00;62759.84;5307118;28;20032;-76
2022/04/11 08:41:58;;;;;;;6.88;3.22;;;;;;;-145.45;100.00;62759.84;5316618;28;20380;-76
2022/04/11 08:44:32;;;;;;;7.82;3.20;;;;;;;-145.45;100.00;62759.84;5308957;28;20480;-76
2022/04/11 08:47:06;;;;;;;4.72;2.80;;;;;;;-145.45;100.00;62759.84;5327563;28;20115;-76
2022/04/11 08:49:38;;;;;;;6.25;3.05;;;;;;;-145.45;100.00;62759.84;5328118;28;20023;-76
2022/04/11 08:52:09;;;;;;;5.28;2.72;;;;;;;-145.45;100.00;62759.84;5327829;28;20024;-76
2022/04/11 08:54:41;;;;;;;4.63;2.50;;;;;;;-145.45;100.00;62759.84;5276392;28;20103;-76
2022/04/11 08:57:12;;;;;;;8.40;2.60;;;;;;;-145.45;100.00;62759.84;5306944;28;20036;-76
2022/04/11 08:59:44;;;;;;;5.60;2.63;;;;;;;-145.45;100.00;62759.84;5288229;28;20020;-76
2022/04/11 09:02:15;;;;;;;5.88;2.28;;;;;;;-145.45;100.00;62759.84;5306015;28;20146;-76
2022/04/11 09:04:55;;;;;;;6.30;2.47;;;;;;;-145.45;100.00;62759.84;5288644;28;20032;-76
2022/04/11 09:07:26;;;;;;;5.55;2.38;;;;;;;-145.45;100.00;62759.84;5305854;28;20017;-76
2022/04/11 09:09:59;;;;;;;4.22;2.25;;;;;;;-145.45;100.00;62759.84;5306038;28;20083;-76
2022/04/11 09:12:30;;;;;;;4.53;2.58;;;;;;;-145.45;100.00;62759.84;5305957;28;20103;-76
2022/04/11 09:15:05;;;;;;;4.20;2.15;;;;;;;-145.45;100.00;62759.84;5305625;28;20443;-76
2022/04/11 09:17:41;;;;;;;7.93;2.77;;;;;;;-145.45;100.00;62759.84;5305669;28;20477;-76
2022/04/11 09:20:17;;;;;;;;;;;;;;;-145.45;100.00;62759.84;5306770;28;20043;-76
2022/04/11 09:22:48;;;;;;;4.03;1.95;;;;;;;-145.45;100.00;62759.84;5306232;28;20349;-76
2022/04/11 09:25:27;;;;;;;4.18;1.75;;;;;;;-145.45;100.00;62759.84;5305994;28;20041;-75
2022/04/11 09:28:07;;;;;;;4.60;2.00;;;;;;;-145.45;100.00;62759.84;5306023;28;20023;-75
2022/04/11 09:30:40;;;;;;;4.38;2.15;;;;;;;-145.45;100.00;62759.84;5306006;28;20052;-75
2022/04/11 09:33:12;;;;;;;6.10;2.15;;;;;;;-145.45;100.00;62759.84;5287393;28;20025;-75
2022/04/11 09:35:49;;;;;;;4.35;2.22;;;;;;;-145.45;100.00;62759.84;5286912;28;20392;-75
2022/04/11 09:38:21;;;;;;;3.17;1.80;;;;;;;-145.45;100.00;62759.84;5305964;28;20045;-75
2022/04/11 09:40:54;;;;;;;5.68;2.30;;;;;;;-145.45;100.00;62759.84;5305824;28;20025;-75
2022/04/11 09:43:30;;;;;;;5.00;1.92;;;;;;;-145.45;100.00;62759.84;5283491;28;20365;-76
2022/04/11 09:46:03;;;;;;;2.95;1.52;;;;;;;-145.45;100.00;62759.84;5283553;28;20025;-76
2022/04/11 09:48:37;;;;;;;3.55;1.73;;;;;;;-145.45;100.00;62759.84;5282033;28;20672;-76
2022/04/11 09:51:11;;;;;;;4.43;2.17;;;;;;;-145.45;100.00;62759.84;5284556;28;20021;-75
2022/04/11 09:53:43;;;;;;;5.50;2.10;;;;;;;-145.45;100.00;62759.84;5291031;28;20020;-75
2022/04/11 09:56:16;;;;;;;5.53;2.33;;;;;;;-145.45;100.00;62759.84;5305057;28;20064;-75
2022/04/11 09:58:48;;;;;;;2.67;1.70;;;;;;;-145.45;100.00;62759.84;5305683;28;20020;-75
2022/04/11 10:01:23;;;;;;;3.65;1.90;;;;;;;-145.45;100.00;62759.84;5305185;28;20094;-75
2022/04/11 10:03:55;;;;;;;5.10;1.92;;;;;;;-145.45;100.00;62759.84;5305060;28;20033;-75
2022/04/11 10:06:26;;;;;;;4.75;2.03;;;;;;;-145.45;100.00;62759.84;5306595;28;20091;-75
2022/04/11 10:08:58;;;;;;;5.38;2.08;;;;;;;-145.45;100.00;62759.84;5307413;28;20021;-75
2022/04/11 10:11:30;;;;;;;4.57;2.20;;;;;;;-145.45;100.00;62759.84;5306437;28;20127;-75
2022/04/11 10:14:02;;;;;;;4.70;2.22;;;;;;;-145.45;100.00;62759.84;5305101;28;20047;-75
2022/04/11 10:16:34;;;;;;;6.65;2.20;;;;;;;-145.45;100.00;62759.84;5305472;28;20067;-75
2022/04/11 10:19:06;;;;;;;3.85;2.00;;;;;;;-145.45;100.00;62759.84;5304630;28;20103;-75
2022/04/11 10:21:43;;;;;;;4.20;2.17;;;;;;;-145.45;100.00;62759.84;5305555;28;20013;-75
2022/04/11 10:24:40;;;;;;;4.57;2.20;;;;;;;-145.45;100.00;62759.84;5305226;28;20041;-75
2022/04/11 10:27:15;;;;;;;4.22;2.40;;;;;;;-145.45;100.00;62759.84;5303540;28;20342;-74
2022/04/11 10:29:51;;;;;;;4.80;2.28;;;;;;;-145.45;100.00;62759.84;5304565;28;20091;-75
2022/04/11 10:32:25;;;;;;;7.10;2.88;;;;;;;-145.45;100.00;62759.84;5295326;28;20044;-74
2022/04/11 10:35:01;;;;;;;3.88;2.38;;;;;;;-145.45;100.00;62759.84;5304819;28;20385;-75
2022/04/11 10:37:38;;;;;;;3.88;2.00;;;;;;;-145.45;100.00;62759.84;5305341;28;20036;-75
2022/04/11 10:40:27;;;;;;;7.47;2.25;;;;;;;-145.45;100.00;62759.84;5304664;28;20120;-75
2022/04/11 10:43:04;;;;;;;4.45;2.30;;;;;;;-145.45;100.00;62759.84;5304532;28;20024;-75
2022/04/11 10:45:36;;;;;;;4.38;2.40;;;;;;;-145.45;100.00;62759.84;5303971;28;20033;-75
2022/04/11 10:48:10;;;;;;;6.68;2.50;;;;;;;-145.45;100.00;62759.84;5285077;28;20454;-75
2022/04/11 10:50:43;;;;;;;4.95;2.63;;;;;;;-145.45;100.00;62759.84;5304498;28;20033;-75
2022/04/11 10:53:22;;;;;;;5.07;2.42;;;;;;;-145.45;100.00;62759.84;5304759;28;20489;-75
2022/04/11 10:55:55;;;;;;;5.40;2.40;;;;;;;-145.45;100.00;62759.84;5304135;28;20465;-75
2022/04/11 10:58:42;;;;;;;5.03;2.47;;;;;;;-145.45;100.00;62759.84;5305148;28;20490;-75
2022/04/11 11:01:13;;;;;;;4.38;2.92;;;;;;;-145.45;100.00;62759.84;5303193;28;20029;-75
2022/04/11 11:04:14;;;;;;;5.20;2.85;;;;;;;-145.45;100.00;62759.84;5288375;28;20104;-75
2022/04/11 11:06:46;;;;;;;5.20;2.70;;;;;;;-145.45;100.00;62759.84;5302445;28;20027;-75
2022/04/11 11:09:19;;;;;;;3.88;2.50;;;;;;;-145.45;100.00;62759.84;5304988;28;20020;-75
2022/04/11 11:11:50;;;;;;;4.72;2.60;;;;;;;-145.45;100.00;62759.84;5304180;28;20033;-75
2022/04/11 11:14:41;;;;;;;4.43;2.63;;;;;;;-145.45;100.00;62759.84;5304063;28;20091;-75
2022/04/11 11:17:13;;;;;;;5.20;2.42;;;;;;;-145.45;100.00;62759.84;5282830;28;20053;-75
2022/04/11 11:20:04;;;;;;;6.72;2.50;;;;;;;-145.45;100.00;62759.84;5283548;28;20110;-75
2022/04/11 11:23:12;;;;;;;7.88;2.78;;;;;;;-145.45;100.00;62759.84;5283100;28;20426;-76